Observation data for Lamesa on 11/09/2019      Previous  Date       Current Mesonet Observations  Soil Data  Daily Summary Page  Observations in Plain Language
KLES 090600Z 21005KT 05/04 A3032 RMK A01 T00450039  RH  098%=      5-min Rain = 0
KLES 090605Z 20004KT 05/04 A3032 RMK A01 T00450039  RH  098%=      5-min Rain = 0
KLES 090610Z 20004KT 04/04 A3032 RMK A01 T00440038  RH  098%=      5-min Rain = 0
KLES 090615Z 20004KT 04/04 A3032 RMK A01 T00420036  RH  098%=      5-min Rain = 0
KLES 090620Z 20005KT 04/04 A3032 RMK A01 T00410035  RH  098%=      5-min Rain = 0
KLES 090625Z 21005KT 04/03 A3032 RMK A01 T00400034  RH  098%=      5-min Rain = 0
KLES 090630Z 21005KT 04/04 A3032 RMK A01 T00410035  RH  098%=      5-min Rain = 0
KLES 090635Z 22005KT 04/04 A3032 RMK A01 T00420037  RH  098%=      5-min Rain = 0
KLES 090640Z 22006KT 04/04 A3031 RMK A01 T00440039  RH  098%=      5-min Rain = 0
KLES 090645Z 22005KT 05/04 A3031 RMK A01 T00450040  RH  098%=      5-min Rain = 0
KLES 090650Z 23005KT 05/04 A3031 RMK A01 T00450040  RH  098%=      5-min Rain = 0
KLES 090655Z 23005KT 05/04 A3031 RMK A01 T00450039  RH  098%=      5-min Rain = 0
KLES 090700Z 23005KT 04/04 A3031 RMK A01 T00440039  RH  098%=      5-min Rain = 0
KLES 090705Z 23006KT 05/04 A3031 RMK A01 T00450039  RH  098%=      5-min Rain = 0
KLES 090710Z 24005KT 05/04 A3031 RMK A01 T00450040  RH  098%=      5-min Rain = 0
KLES 090715Z 24005KT 05/04 A3031 RMK A01 T00450040  RH  098%=      5-min Rain = 0
KLES 090720Z 24005KT 05/04 A3031 RMK A01 T00450039  RH  098%=      5-min Rain = 0
KLES 090725Z 25003KT 04/04 A3031 RMK A01 T00440039  RH  098%=      5-min Rain = 0
KLES 090730Z 26002KT 05/04 A3031 RMK A01 T00450040  RH  098%=      5-min Rain = 0
KLES 090735Z 26003KT 05/04 A3031 RMK A01 T00450039  RH  098%=      5-min Rain = 0
KLES 090740Z 26002KT 04/04 A303 RMK A01 T00440038  RH  098%=      5-min Rain = 0
KLES 090745Z 25002KT 04/04 A303 RMK A01 T00420037  RH  098%=      5-min Rain = 0
KLES 090750Z 26001KT 04/04 A303 RMK A01 T00410036  RH  098%=      5-min Rain = 0
KLES 090755Z 27001KT 04/03 A303 RMK A01 T00400034  RH  098%=      5-min Rain = 0
KLES 090800Z 28002KT 04/03 A303 RMK A01 T00380033  RH  098%=      5-min Rain = 0
KLES 090805Z 27002KT 04/03 A303 RMK A01 T00370032  RH  098%=      5-min Rain = 0
KLES 090810Z 28003KT 04/03 A303 RMK A01 T00370032  RH  098%=      5-min Rain = 0
KLES 090815Z 29003KT 04/03 A3029 RMK A01 T00350030  RH  098%=      5-min Rain = 0
KLES 090820Z 29004KT 03/03 A3029 RMK A01 T00340029  RH  098%=      5-min Rain = 0
KLES 090825Z 28004KT 04/03 A3029 RMK A01 T00350031  RH  099%=      5-min Rain = 0
KLES 090830Z 29004KT 04/03 A3028 RMK A01 T00360032  RH  099%=      5-min Rain = 0.01
KLES 090835Z 28003KT 04/03 A3028 RMK A01 T00370033  RH  099%=      5-min Rain = 0
KLES 090840Z 28003KT 04/03 A3028 RMK A01 T00380034  RH  099%=      5-min Rain = 0
KLES 090845Z 27004KT 04/04 A3028 RMK A01 T00400035  RH  099%=      5-min Rain = 0
KLES 090850Z 27004KT 04/04 A3028 RMK A01 T00410037  RH  099%=      5-min Rain = 0
KLES 090855Z 27004KT 04/04 A3028 RMK A01 T00430038  RH  099%=      5-min Rain = 0
KLES 090900Z 27003KT 04/04 A3027 RMK A01 T00420037  RH  098%=      5-min Rain = 0
KLES 090905Z 26003KT 04/04 A3027 RMK A01 T00410035  RH  098%=      5-min Rain = 0
KLES 090910Z 25002KT 04/04 A3027 RMK A01 T00400035  RH  098%=      5-min Rain = 0
KLES 090915Z 24003KT 04/03 A3027 RMK A01 T00360030  RH  098%=      5-min Rain = 0
KLES 090920Z 23003KT 03/03 A3027 RMK A01 T00310026  RH  098%=      5-min Rain = 0
KLES 090925Z 23005KT 03/02 A3027 RMK A01 T00280023  RH  098%=      5-min Rain = 0
KLES 090930Z 23005KT 03/03 A3027 RMK A01 T00300027  RH  099%=      5-min Rain = 0
KLES 090935Z 23005KT 03/03 A3027 RMK A01 T00310027  RH  099%=      5-min Rain = 0
KLES 090940Z 24005KT 03/03 A3027 RMK A01 T00310027  RH  099%=      5-min Rain = 0
KLES 090945Z 24005KT 03/03 A3027 RMK A01 T00320028  RH  099%=      5-min Rain = 0
KLES 090950Z 25005KT 03/03 A3027 RMK A01 T00340030  RH  099%=      5-min Rain = 0
KLES 090955Z 26004KT 04/03 A3027 RMK A01 T00360032  RH  099%=      5-min Rain = 0
KLES 091000Z 27004KT 04/03 A3027 RMK A01 T00370033  RH  099%=      5-min Rain = 0
KLES 091005Z 28004KT 04/03 A3026 RMK A01 T00360032  RH  099%=      5-min Rain = 0
KLES 091010Z 27004KT 04/03 A3026 RMK A01 T00350030  RH  099%=      5-min Rain = 0
KLES 091015Z 27004KT 03/03 A3026 RMK A01 T00330029  RH  099%=      5-min Rain = 0
KLES 091020Z 27004KT 03/03 A3026 RMK A01 T00330029  RH  099%=      5-min Rain = 0
KLES 091025Z 27004KT 03/03 A3026 RMK A01 T00340030  RH  099%=      5-min Rain = 0
KLES 091030Z 27004KT 04/03 A3026 RMK A01 T00350031  RH  099%=      5-min Rain = 0
KLES 091035Z 27004KT 04/03 A3026 RMK A01 T00360032  RH  099%=      5-min Rain = 0
KLES 091040Z 28003KT 04/03 A3026 RMK A01 T00370032  RH  099%=      5-min Rain = 0
KLES 091045Z 27004KT 04/03 A3026 RMK A01 T00360031  RH  099%=      5-min Rain = 0
KLES 091050Z 28004KT 04/03 A3026 RMK A01 T00350031  RH  099%=      5-min Rain = 0
KLES 091055Z 28004KT 03/03 A3026 RMK A01 T00340029  RH  099%=      5-min Rain = 0
KLES 091100Z 28004KT 03/03 A3026 RMK A01 T00340030  RH  099%=      5-min Rain = 0
KLES 091105Z 28004KT 04/03 A3026 RMK A01 T00360032  RH  099%=      5-min Rain = 0
KLES 091110Z 27004KT 04/03 A3026 RMK A01 T00360032  RH  099%=      5-min Rain = 0
KLES 091115Z 27003KT 04/03 A3026 RMK A01 T00350031  RH  099%=      5-min Rain = 0
KLES 091120Z 27003KT 04/03 A3026 RMK A01 T00350030  RH  099%=      5-min Rain = 0
KLES 091125Z 27002KT 03/03 A3026 RMK A01 T00340029  RH  099%=      5-min Rain = 0
KLES 091130Z 26004KT 03/03 A3026 RMK A01 T00330029  RH  099%=      5-min Rain = 0
KLES 091135Z 28003KT 03/03 A3026 RMK A01 T00320028  RH  099%=      5-min Rain = 0
KLES 091140Z 30003KT 03/03 A3026 RMK A01 T00310026  RH  098%=      5-min Rain = 0
KLES 091145Z 29005KT 03/02 A3026 RMK A01 T00280024  RH  099%=      5-min Rain = 0
KLES 091150Z 29005KT 03/03 A3026 RMK A01 T00290026  RH  099%=      5-min Rain = 0
KLES 091155Z 28005KT 03/03 A3026 RMK A01 T00300026  RH  099%=      5-min Rain = 0
KLES 091200Z 28005KT 03/03 A3027 RMK A01 T00300026  RH  099%=      5-min Rain = 0
KLES 091205Z 27005KT 03/03 A3027 RMK A01 T00320029  RH  099%=      5-min Rain = 0
KLES 091210Z 28005KT 04/03 A3027 RMK A01 T00360033  RH  099%=      5-min Rain = 0
KLES 091215Z 28006KT 04/03 A3027 RMK A01 T00360032  RH  099%=      5-min Rain = 0
KLES 091220Z 28005KT 04/03 A3027 RMK A01 T00350030  RH  099%=      5-min Rain = 0
KLES 091225Z 28005KT 03/03 A3027 RMK A01 T00340030  RH  099%=      5-min Rain = 0
KLES 091230Z 29005KT 03/03 A3027 RMK A01 T00340030  RH  099%=      5-min Rain = 0
KLES 091235Z 28005KT 03/03 A3028 RMK A01 T00340030  RH  099%=      5-min Rain = 0
KLES 091240Z 27004KT 03/03 A3028 RMK A01 T00320028  RH  099%=      5-min Rain = 0
KLES 091245Z 27004KT 03/03 A3028 RMK A01 T00330029  RH  099%=      5-min Rain = 0
KLES 091250Z 27004KT 03/03 A3028 RMK A01 T00320028  RH  099%=      5-min Rain = 0
KLES 091255Z 27004KT 03/03 A3028 RMK A01 T00320028  RH  099%=      5-min Rain = 0
KLES 091300Z 27004KT 03/03 A3028 RMK A01 T00320027  RH  099%=      5-min Rain = 0
KLES 091305Z 26004KT 03/03 A3028 RMK A01 T00310027  RH  099%=      5-min Rain = 0
KLES 091310Z 26004KT 03/03 A3028 RMK A01 T00300026  RH  099%=      5-min Rain = 0
KLES 091315Z 26004KT 03/03 A3028 RMK A01 T00300026  RH  099%=      5-min Rain = 0
KLES 091320Z 26003KT 03/03 A3028 RMK A01 T00300026  RH  099%=      5-min Rain = 0
KLES 091325Z 26003KT 03/03 A3028 RMK A01 T00290025  RH  099%=      5-min Rain = 0
KLES 091330Z 27003KT 03/03 A3028 RMK A01 T00290025  RH  099%=      5-min Rain = 0
KLES 091335Z 27003KT 03/03 A3028 RMK A01 T00290025  RH  099%=      5-min Rain = 0
KLES 091340Z 26003KT 03/03 A3028 RMK A01 T00290025  RH  099%=      5-min Rain = 0
KLES 091345Z 25003KT 03/03 A3028 RMK A01 T00300026  RH  099%=      5-min Rain = 0
KLES 091350Z 26003KT 03/03 A3028 RMK A01 T00320028  RH  099%=      5-min Rain = 0
KLES 091355Z 26003KT 03/03 A3028 RMK A01 T00340030  RH  099%=      5-min Rain = 0
KLES 091400Z 27004KT 04/03 A3028 RMK A01 T00350031  RH  099%=      5-min Rain = 0
KLES 091405Z 26004KT 04/03 A3028 RMK A01 T00370033  RH  099%=      5-min Rain = 0
KLES 091410Z 26005KT 04/04 A3028 RMK A01 T00390035  RH  099%=      5-min Rain = 0
KLES 091415Z 25005KT 04/04 A3028 RMK A01 T00430039  RH  099%=      5-min Rain = 0
KLES 091420Z 26004KT 05/04 A3028 RMK A01 T00450040  RH  099%=      5-min Rain = 0
KLES 091425Z 27004KT 05/04 A3028 RMK A01 T00470042  RH  099%=      5-min Rain = 0
KLES 091430Z 28005KT 05/05 A3028 RMK A01 T00500045  RH  099%=      5-min Rain = 0
KLES 091435Z 28005KT 05/05 A3028 RMK A01 T00520047  RH  099%=      5-min Rain = 0
KLES 091440Z 29006KT 06/05 A3029 RMK A01 T00560050  RH  098%=      5-min Rain = 0
KLES 091445Z 29005KT 06/05 A3029 RMK A01 T00580052  RH  098%=      5-min Rain = 0
KLES 091450Z 28005KT 06/06 A3029 RMK A01 T00610055  RH  098%=      5-min Rain = 0
KLES 091455Z 29005KT 06/06 A3029 RMK A01 T00630057  RH  098%=      5-min Rain = 0
KLES 091500Z 29005KT 07/06 A3029 RMK A01 T00660060  RH  098%=      5-min Rain = 0
KLES 091505Z 28005KT 07/06 A3029 RMK A01 T00690061  RH  097%=      5-min Rain = 0
KLES 091510Z 29006KT 07/06 A3029 RMK A01 T00720064  RH  097%=      5-min Rain = 0
KLES 091515Z 29007KT 07/07 A3029 RMK A01 T00740066  RH  097%=      5-min Rain = 0
KLES 091520Z 29007KT 08/07 A3029 RMK A01 T00770069  RH  097%=      5-min Rain = 0
KLES 091525Z 29007KT 08/07 A3029 RMK A01 T00800071  RH  096%=      5-min Rain = 0
KLES 091530Z 29006KT 08/07 A3029 RMK A01 T00840074  RH  096%=      5-min Rain = 0
KLES 091535Z 28006KT 09/08 A3029 RMK A01 T00870075  RH  095%=      5-min Rain = 0
KLES 091540Z 28006KT 09/08 A3029 RMK A01 T00890076  RH  095%=      5-min Rain = 0
KLES 091545Z 28007KT 09/08 A3029 RMK A01 T00910078  RH  094%=      5-min Rain = 0
KLES 091550Z 28006KT 10/08 A3029 RMK A01 T00950081  RH  093%=      5-min Rain = 0
KLES 091555Z 27005KT 10/08 A3029 RMK A01 T01000084  RH  093%=      5-min Rain = 0
KLES 091600Z 27005KT 10/08 A3029 RMK A01 T01030084  RH  091%=      5-min Rain = 0
KLES 091605Z 27006KT 11/09 A3029 RMK A01 T01050085  RH  090%=      5-min Rain = 0
KLES 091610Z 26006KT 11/09 A3029 RMK A01 T01080086  RH  089%=      5-min Rain = 0
KLES 091615Z 26006KT 11/09 A3029 RMK A01 T01120089  RH  088%=      5-min Rain = 0
KLES 091620Z 25006KT 11/09 A3029 RMK A01 T01140088  RH  086%=      5-min Rain = 0
KLES 091625Z 24008KT 12/09 A3029 RMK A01 T01160088  RH  085%=      5-min Rain = 0
KLES 091630Z 25008KT 12/09 A3029 RMK A01 T01180087  RH  084%=      5-min Rain = 0
KLES 091635Z 25008KT 12/09 A3029 RMK A01 T01190088  RH  083%=      5-min Rain = 0
KLES 091640Z 25006KT 12/09 A3029 RMK A01 T01230091  RH  083%=      5-min Rain = 0
KLES 091645Z 25007KT 13/09 A3029 RMK A01 T01250091  RH  083%=      5-min Rain = 0
KLES 091650Z 24007KT 13/09 A3028 RMK A01 T01270092  RH  082%=      5-min Rain = 0
KLES 091655Z 24007KT 13/09 A3028 RMK A01 T01300093  RH  081%=      5-min Rain = 0
KLES 091700Z 25006KT 13/09 A3028 RMK A01 T01300093  RH  081%=      5-min Rain = 0
KLES 091705Z 26006KT 13/10 A3028 RMK A01 T01330097  RH  081%=      5-min Rain = 0
KLES 091710Z 25007KT 14/10 A3028 RMK A01 T01370097  RH  079%=      5-min Rain = 0
KLES 091715Z 25007KT 14/10 A3028 RMK A01 T01390098  RH  079%=      5-min Rain = 0
KLES 091720Z 25007KT 14/10 A3027 RMK A01 T01430101  RH  078%=      5-min Rain = 0
KLES 091725Z 23008KT 15/10 A3027 RMK A01 T01460101  RH  077%=      5-min Rain = 0
KLES 091730Z 23009KT 15/10 A3027 RMK A01 T01470100  RH  076%=      5-min Rain = 0
KLES 091735Z 22009KT 15/10 A3027 RMK A01 T01490102  RH  076%=      5-min Rain = 0
KLES 091740Z 23009KT 15/10 A3027 RMK A01 T01500103  RH  076%=      5-min Rain = 0
KLES 091745Z 24008KT 15/10 A3027 RMK A01 T01500101  RH  075%=      5-min Rain = 0
KLES 091750Z 24008KT 15/10 A3026 RMK A01 T01540104  RH  074%=      5-min Rain = 0
KLES 091755Z 24008KT 16/11 A3026 RMK A01 T01580105  RH  073%=      5-min Rain = 0
KLES 091800Z 25007KT 16/10 A3026 RMK A01 T01570103  RH  073%=      5-min Rain = 0
KLES 091805Z 24007KT 16/10 A3025 RMK A01 T01580104  RH  073%=      5-min Rain = 0
KLES 091810Z 23008KT 16/10 A3025 RMK A01 T01600104  RH  071%=      5-min Rain = 0
KLES 091815Z 23008KT 16/10 A3025 RMK A01 T01630104  RH  070%=      5-min Rain = 0
KLES 091820Z 23007KT 16/10 A3025 RMK A01 T01620103  RH  070%=      5-min Rain = 0
KLES 091825Z 22008KT 16/10 A3024 RMK A01 T01640103  RH  069%=      5-min Rain = 0
KLES 091830Z 22008KT 17/10 A3024 RMK A01 T01650104  RH  069%=      5-min Rain = 0
KLES 091835Z 23008KT 17/10 A3024 RMK A01 T01660101  RH  068%=      5-min Rain = 0
KLES 091840Z 24008KT 17/10 A3023 RMK A01 T01680101  RH  067%=      5-min Rain = 0
KLES 091845Z 23009KT 17/10 A3023 RMK A01 T01690101  RH  066%=      5-min Rain = 0
KLES 091850Z 24008KT 17/10 A3023 RMK A01 T01710101  RH  065%=      5-min Rain = 0
KLES 091855Z 23008KT 17/10 A3022 RMK A01 T01720099  RH  064%=      5-min Rain = 0
KLES 091900Z 23007KT 17/10 A3022 RMK A01 T01730101  RH  065%=      5-min Rain = 0
KLES 091905Z 24006KT 18/10 A3021 RMK A01 T01750103  RH  065%=      5-min Rain = 0
KLES 091910Z 24006KT 18/10 A3021 RMK A01 T01780101  RH  063%=      5-min Rain = 0
KLES 091915Z 23005KT 18/10 A3021 RMK A01 T01790104  RH  063%=      5-min Rain = 0
KLES 091920Z 24006KT 18/10 A3021 RMK A01 T01800098  RH  061%=      5-min Rain = 0
KLES 091925Z 24006KT 18/10 A302 RMK A01 T01820101  RH  061%=      5-min Rain = 0
KLES 091930Z 22004KT 18/10 A302 RMK A01 T01840104  RH  062%=      5-min Rain = 0
KLES 091935Z 21005KT 19/11 A302 RMK A01 T01860105  RH  061%=      5-min Rain = 0
KLES 091940Z 21005KT 19/11 A302 RMK A01 T01890108  RH  061%=      5-min Rain = 0
KLES 091945Z 20006KT 19/11 A302 RMK A01 T01910106  RH  060%=      5-min Rain = 0
KLES 091950Z 19006KT 19/11 A3019 RMK A01 T01910107  RH  060%=      5-min Rain = 0
KLES 091955Z 20007KT 19/11 A3019 RMK A01 T01920105  RH  059%=      5-min Rain = 0
KLES 092000Z 20006KT 19/10 A3019 RMK A01 T01920101  RH  057%=      5-min Rain = 0
KLES 092005Z 20006KT 19/10 A3019 RMK A01 T01920101  RH  058%=      5-min Rain = 0
KLES 092010Z 21005KT 19/10 A3018 RMK A01 T01910103  RH  058%=      5-min Rain = 0
KLES 092015Z 18005KT 20/10 A3018 RMK A01 T01960102  RH  056%=      5-min Rain = 0
KLES 092020Z 19006KT 20/10 A3018 RMK A01 T01960101  RH  056%=      5-min Rain = 0
KLES 092025Z 22005KT 20/10 A3018 RMK A01 T01970099  RH  055%=      5-min Rain = 0
KLES 092030Z 20006KT 20/10 A3018 RMK A01 T01980097  RH  054%=      5-min Rain = 0
KLES 092035Z 21006KT 20/09 A3017 RMK A01 T01980093  RH  052%=      5-min Rain = 0
KLES 092040Z 20004KT 20/09 A3017 RMK A01 T01980089  RH  051%=      5-min Rain = 0
KLES 092045Z 20006KT 20/08 A3017 RMK A01 T02000084  RH  048%=      5-min Rain = 0
KLES 092050Z 20004KT 20/08 A3017 RMK A01 T02010082  RH  048%=      5-min Rain = 0
KLES 092055Z 21005KT 20/09 A3016 RMK A01 T02020086  RH  049%=      5-min Rain = 0
KLES 092100Z 22006KT 20/08 A3016 RMK A01 T02020080  RH  047%=      5-min Rain = 0
KLES 092105Z 22006KT 20/07 A3016 RMK A01 T02010068  RH  043%=      5-min Rain = 0
KLES 092110Z 22005KT 20/07 A3016 RMK A01 T02020072  RH  044%=      5-min Rain = 0
KLES 092115Z 22005KT 20/07 A3016 RMK A01 T02030074  RH  044%=      5-min Rain = 0
KLES 092120Z 21005KT 20/08 A3016 RMK A01 T02030078  RH  046%=      5-min Rain = 0
KLES 092125Z 22006KT 21/07 A3015 RMK A01 T02050072  RH  043%=      5-min Rain = 0
KLES 092130Z 22004KT 20/06 A3015 RMK A01 T02030062  RH  041%=      5-min Rain = 0
KLES 092135Z 21007KT 20/08 A3015 RMK A01 T02020078  RH  046%=      5-min Rain = 0
KLES 092140Z 20007KT 20/08 A3015 RMK A01 T02010084  RH  048%=      5-min Rain = 0
KLES 092145Z 19005KT 20/08 A3015 RMK A01 T02000082  RH  048%=      5-min Rain = 0
KLES 092150Z 19005KT 20/08 A3015 RMK A01 T02020082  RH  047%=      5-min Rain = 0
KLES 092155Z 20005KT 20/08 A3015 RMK A01 T02040079  RH  046%=      5-min Rain = 0
KLES 092200Z 19005KT 21/08 A3015 RMK A01 T02050081  RH  046%=      5-min Rain = 0
KLES 092205Z 20005KT 21/08 A3014 RMK A01 T02070084  RH  047%=      5-min Rain = 0
KLES 092210Z 19006KT 21/08 A3014 RMK A01 T02050080  RH  046%=      5-min Rain = 0
KLES 092215Z 21007KT 20/08 A3014 RMK A01 T02040076  RH  045%=      5-min Rain = 0
KLES 092220Z 21006KT 20/08 A3014 RMK A01 T02030076  RH  045%=      5-min Rain = 0
KLES 092225Z 20006KT 20/08 A3014 RMK A01 T02030077  RH  045%=      5-min Rain = 0
KLES 092230Z 20007KT 20/08 A3014 RMK A01 T02030078  RH  046%=      5-min Rain = 0
KLES 092235Z 21005KT 20/08 A3014 RMK A01 T02020077  RH  046%=      5-min Rain = 0
KLES 092240Z 20006KT 20/08 A3014 RMK A01 T02000083  RH  048%=      5-min Rain = 0
KLES 092245Z 19005KT 20/09 A3014 RMK A01 T01990088  RH  050%=      5-min Rain = 0
KLES 092250Z 19005KT 20/09 A3014 RMK A01 T01990088  RH  050%=      5-min Rain = 0
KLES 092255Z 17005KT 20/09 A3014 RMK A01 T01990085  RH  049%=      5-min Rain = 0
KLES 092300Z 17006KT 20/09 A3014 RMK A01 T01960088  RH  051%=      5-min Rain = 0
KLES 092305Z 16006KT 19/09 A3014 RMK A01 T01930093  RH  054%=      5-min Rain = 0
KLES 092310Z 16005KT 19/09 A3014 RMK A01 T01920094  RH  055%=      5-min Rain = 0
KLES 092315Z 15005KT 19/10 A3014 RMK A01 T01910097  RH  056%=      5-min Rain = 0
KLES 092320Z 15005KT 19/10 A3014 RMK A01 T01880098  RH  058%=      5-min Rain = 0
KLES 092325Z 15005KT 19/10 A3014 RMK A01 T01860098  RH  058%=      5-min Rain = 0
KLES 092330Z 16005KT 18/10 A3014 RMK A01 T01820098  RH  060%=      5-min Rain = 0
KLES 092335Z 15004KT 18/10 A3014 RMK A01 T01780098  RH  062%=      5-min Rain = 0
KLES 092340Z 15005KT 17/10 A3014 RMK A01 T01730098  RH  063%=      5-min Rain = 0
KLES 092345Z 15005KT 17/10 A3013 RMK A01 T01690099  RH  066%=      5-min Rain = 0
KLES 092350Z 15005KT 17/10 A3013 RMK A01 T01650098  RH  067%=      5-min Rain = 0
KLES 092355Z 15005KT 16/10 A3014 RMK A01 T01610096  RH  067%=      5-min Rain = 0
KLES 100000Z 15005KT 16/10 A3014 RMK A01 T01580095  RH  068%=      5-min Rain = 0
KLES 100005Z 15006KT 16/09 A3014 RMK A01 T01570094  RH  068%=      5-min Rain = 0
KLES 100010Z 15007KT 15/09 A3014 RMK A01 T01540093  RH  069%=      5-min Rain = 0
KLES 100015Z 15007KT 15/09 A3014 RMK A01 T01510093  RH  070%=      5-min Rain = 0
KLES 100020Z 15006KT 15/09 A3014 RMK A01 T01500093  RH  071%=      5-min Rain = 0
KLES 100025Z 15007KT 15/09 A3013 RMK A01 T01480094  RH  072%=      5-min Rain = 0
KLES 100030Z 15007KT 15/10 A3014 RMK A01 T01470095  RH  073%=      5-min Rain = 0
KLES 100035Z 15006KT 15/10 A3014 RMK A01 T01460095  RH  074%=      5-min Rain = 0
KLES 100040Z 15006KT 15/10 A3014 RMK A01 T01450095  RH  074%=      5-min Rain = 0
KLES 100045Z 15006KT 14/09 A3014 RMK A01 T01420094  RH  075%=      5-min Rain = 0
KLES 100050Z 15006KT 14/09 A3014 RMK A01 T01410094  RH  076%=      5-min Rain = 0
KLES 100055Z 15006KT 14/09 A3014 RMK A01 T01390094  RH  077%=      5-min Rain = 0
KLES 100100Z 16006KT 14/09 A3014 RMK A01 T01380094  RH  077%=      5-min Rain = 0
KLES 100105Z 16006KT 14/09 A3014 RMK A01 T01360093  RH  078%=      5-min Rain = 0
KLES 100110Z 16006KT 14/09 A3014 RMK A01 T01350092  RH  078%=      5-min Rain = 0
KLES 100115Z 16005KT 13/09 A3014 RMK A01 T01320091  RH  078%=      5-min Rain = 0
KLES 100120Z 17005KT 13/09 A3014 RMK A01 T01280089  RH  080%=      5-min Rain = 0
KLES 100125Z 17005KT 12/09 A3014 RMK A01 T01230088  RH  081%=      5-min Rain = 0
KLES 100130Z 17005KT 12/09 A3014 RMK A01 T01200087  RH  083%=      5-min Rain = 0
KLES 100135Z 17006KT 12/09 A3014 RMK A01 T01180086  RH  084%=      5-min Rain = 0
KLES 100140Z 17005KT 12/09 A3014 RMK A01 T01150085  RH  084%=      5-min Rain = 0
KLES 100145Z 17005KT 11/09 A3014 RMK A01 T01140086  RH  085%=      5-min Rain = 0
KLES 100150Z 17005KT 11/09 A3014 RMK A01 T01130086  RH  086%=      5-min Rain = 0
KLES 100155Z 17005KT 11/09 A3014 RMK A01 T01130087  RH  086%=      5-min Rain = 0
KLES 100200Z 17005KT 11/09 A3014 RMK A01 T01130087  RH  087%=      5-min Rain = 0
KLES 100205Z 17005KT 11/09 A3014 RMK A01 T01120087  RH  087%=      5-min Rain = 0
KLES 100210Z 17005KT 11/09 A3014 RMK A01 T01120087  RH  087%=      5-min Rain = 0
KLES 100215Z 17005KT 11/09 A3014 RMK A01 T01120087  RH  087%=      5-min Rain = 0
KLES 100220Z 17005KT 11/09 A3014 RMK A01 T01100085  RH  087%=      5-min Rain = 0
KLES 100225Z 18006KT 11/09 A3014 RMK A01 T01090085  RH  088%=      5-min Rain = 0
KLES 100230Z 18006KT 11/09 A3014 RMK A01 T01080085  RH  088%=      5-min Rain = 0
KLES 100235Z 18005KT 11/08 A3014 RMK A01 T01070084  RH  088%=      5-min Rain = 0
KLES 100240Z 18004KT 11/08 A3014 RMK A01 T01060084  RH  089%=      5-min Rain = 0
KLES 100245Z 18004KT 11/09 A3014 RMK A01 T01060085  RH  089%=      5-min Rain = 0
KLES 100250Z 18004KT 11/09 A3014 RMK A01 T01060085  RH  089%=      5-min Rain = 0
KLES 100255Z 18004KT 11/09 A3014 RMK A01 T01060085  RH  090%=      5-min Rain = 0
KLES 100300Z 19005KT 11/09 A3014 RMK A01 T01060086  RH  090%=      5-min Rain = 0
KLES 100305Z 19005KT 11/09 A3014 RMK A01 T01050085  RH  090%=      5-min Rain = 0
KLES 100310Z 19005KT 10/08 A3014 RMK A01 T01040084  RH  090%=      5-min Rain = 0
KLES 100315Z 19004KT 10/08 A3014 RMK A01 T01030084  RH  090%=      5-min Rain = 0
KLES 100320Z 19004KT 10/08 A3014 RMK A01 T01010081  RH  090%=      5-min Rain = 0
KLES 100325Z 19004KT 10/08 A3014 RMK A01 T00990080  RH  090%=      5-min Rain = 0
KLES 100330Z 20003KT 10/08 A3014 RMK A01 T00990080  RH  091%=      5-min Rain = 0
KLES 100335Z 21004KT 10/08 A3014 RMK A01 T01010083  RH  091%=      5-min Rain = 0
KLES 100340Z 21003KT 10/08 A3014 RMK A01 T01010083  RH  091%=      5-min Rain = 0
KLES 100345Z 21002KT 10/08 A3014 RMK A01 T01000082  RH  091%=      5-min Rain = 0
KLES 100350Z 21002KT 10/08 A3014 RMK A01 T00980081  RH  091%=      5-min Rain = 0
KLES 100355Z 22002KT 10/08 A3014 RMK A01 T00970080  RH  091%=      5-min Rain = 0
KLES 100400Z 23002KT 10/08 A3014 RMK A01 T00980081  RH  092%=      5-min Rain = 0
KLES 100405Z 24002KT 10/08 A3014 RMK A01 T01000084  RH  092%=      5-min Rain = 0
KLES 100410Z 23003KT 10/08 A3014 RMK A01 T01000083  RH  092%=      5-min Rain = 0
KLES 100415Z 22005KT 10/08 A3014 RMK A01 T00990082  RH  092%=      5-min Rain = 0
KLES 100420Z 21005KT 10/08 A3014 RMK A01 T00990081  RH  091%=      5-min Rain = 0
KLES 100425Z 20004KT 10/08 A3014 RMK A01 T00970079  RH  091%=      5-min Rain = 0
KLES 100430Z 20004KT 10/08 A3014 RMK A01 T00950077  RH  091%=      5-min Rain = 0
KLES 100435Z 21005KT 09/08 A3014 RMK A01 T00920075  RH  091%=      5-min Rain = 0
KLES 100440Z 22005KT 09/08 A3014 RMK A01 T00910075  RH  092%=      5-min Rain = 0
KLES 100445Z 22005KT 09/08 A3014 RMK A01 T00940078  RH  092%=      5-min Rain = 0
KLES 100450Z 22005KT 10/08 A3014 RMK A01 T00950078  RH  092%=      5-min Rain = 0
KLES 100455Z 22004KT 09/08 A3014 RMK A01 T00940077  RH  092%=      5-min Rain = 0
KLES 100500Z 22005KT 09/08 A3013 RMK A01 T00940077  RH  092%=      5-min Rain = 0
KLES 100505Z 22005KT 10/08 A3013 RMK A01 T00950078  RH  092%=      5-min Rain = 0
KLES 100510Z 23005KT 10/08 A3013 RMK A01 T00950078  RH  092%=      5-min Rain = 0
KLES 100515Z 23005KT 10/08 A3013 RMK A01 T00950078  RH  091%=      5-min Rain = 0
KLES 100520Z 23004KT 09/08 A3013 RMK A01 T00940077  RH  091%=      5-min Rain = 0
KLES 100525Z 24003KT 09/08 A3013 RMK A01 T00930076  RH  091%=      5-min Rain = 0
KLES 100530Z 25003KT 09/08 A3013 RMK A01 T00940077  RH  092%=      5-min Rain = 0
KLES 100535Z 24003KT 10/08 A3013 RMK A01 T00950078  RH  092%=      5-min Rain = 0
KLES 100540Z 24003KT 09/08 A3013 RMK A01 T00940077  RH  092%=      5-min Rain = 0
KLES 100545Z 24002KT 09/08 A3013 RMK A01 T00920075  RH  091%=      5-min Rain = 0
KLES 100550Z 25003KT 09/08 A3013 RMK A01 T00920076  RH  092%=      5-min Rain = 0
KLES 100555Z 24003KT 09/08 A3012 RMK A01 T00930077  RH  092%=      5-min Rain = 0

Page generated in 0.0162 seconds.